CYLW/YLW METAR and TAF weather

Enter ICAO airport designator
Station Type Date Time Source
CYLW METAR 2020/08/14 17:00 UTC NOAA

CYLW 141700Z AUTO VRB02KT 9SM CLR 20/06 A3014 RMK SLP208 DENSITY ALT 2000FT


Station Type Date Time Source
CYLW Decoded METAR 2020/08/14 17:00 UTC NOAA

Kelowna Airport, Canada (CYLW) 49-58N 119-23W 430M
Aug 14, 2020 - 01:00 PM EDT / 2020.08.14 1700 UTC
Wind: Variable at 2 MPH (2 KT):0
Visibility: 9 mile(s):0
Sky conditions: clear
Temperature: 68 F (20 C)
Dew Point: 42 F (6 C)
Relative Humidity: 39%
Pressure (altimeter): 30.14 in. Hg (1020 hPa)
ob: CYLW 141700Z AUTO VRB02KT 9SM CLR 20/06 A3014 RMK SLP208 DENSITY ALT 2000FT
cycle: 17

Station Type Date Time Source
CYLW TAF 2020/08/14 13:42 UTC NOAA

TAF CYLW 141238Z 1413/1501 VRB03KT P6SM SKC
BECMG 1417/1419 18006KT
RMK FCST BASED ON AUTO OBS. NXT FCST BY 141900Z

Example: see airport list